CSAV Rio Maipo — A8GH5 — position and weather

sailwx.info

Track history (hours):
 
Tides and Currents Weather Stations Pressure Air Temp Water Temp Dewpoint Dewpoint Depression Visibility Wind Speed Wind Dir Waves Ship Positions

CSAV Rio Maipo

Last reported at 2015-Jul-31 19:19 UTC. Time now 2015-Aug-02 12:24 UTC.
Position N 34°12' E 128°06'.

Length 210.9 m; beam 32.3 m; draft 12 m.

Type: Ship (hazmat cat A). MMSI: 636091292.

Date/timePositionNaut miles runAvg speedWind from/ knotsBaromVisibWave heightAir tempDewpointWater temp
2015-Jul-31 19:19N 34°12' E 128°06'1114.1
2015-Jul-31 18:31N 34°05' E 127°55'4714.4
2015-Jul-31 15:16N 33°46' E 127°04'1512.5
2015-Jul-31 14:05N 33°43' E 126°46'5512.2
2015-Jul-31 09:32N 33°45' E 125°40'127 7.7
2015-Jul-30 17:07N 34°40' E 123°21'711.7
2015-Jul-30 16:33N 34°43' E 123°14'1311.9
2015-Jul-30 15:27N 34°50' E 123°01'  
2015-Jul-26 07:06N 35°51' E 120°52'  
Track history (hours):
 
Tides and Currents Weather Stations Pressure Air Temp Water Temp Dewpoint Dewpoint Depression Visibility Wind Speed Wind Dir Waves Ship Positions

CSAV Rio Maipo

Last reported at 2015-Jul-31 19:19 UTC. Time now 2015-Aug-02 12:24 UTC.
Position N 34°12' E 128°06'.

Length 210.9 m; beam 32.3 m; draft 12 m.

Type: Ship (hazmat cat A). MMSI: 636091292.

Date/timePositionNaut miles runAvg speedWind from/ knotsBaromVisibWave heightAir tempDewpointWater temp
2015-Jul-31 19:19N 34°12' E 128°06'1114.1
2015-Jul-31 18:31N 34°05' E 127°55'4714.4
2015-Jul-31 15:16N 33°46' E 127°04'1512.5
2015-Jul-31 14:05N 33°43' E 126°46'5512.2
2015-Jul-31 09:32N 33°45' E 125°40'127 7.7
2015-Jul-30 17:07N 34°40' E 123°21'711.7
2015-Jul-30 16:33N 34°43' E 123°14'1311.9
2015-Jul-30 15:27N 34°50' E 123°01'  
2015-Jul-26 07:06N 35°51' E 120°52'  

Dump ship's entire track history